sensor_id;sensor_type;location;lat;lon;timestamp;pressure;altitude;pressure_sealevel;temperature;humidity
51928;BME280;37953;52.806;18.270;2023-01-25T00:00:40;102853.00;;;1.52;100.00
51928;BME280;37953;52.806;18.270;2023-01-25T00:03:28;102844.56;;;1.53;100.00
51928;BME280;37953;52.806;18.270;2023-01-25T00:05:59;102843.00;;;1.55;100.00
51928;BME280;37953;52.806;18.270;2023-01-25T00:08:26;102845.56;;;1.55;100.00
51928;BME280;37953;52.806;18.270;2023-01-25T00:10:51;102839.56;;;1.55;100.00
51928;BME280;37953;52.806;18.270;2023-01-25T00:13:17;102838.78;;;1.56;100.00
51928;BME280;37953;52.806;18.270;2023-01-25T00:15:43;102835.31;;;1.55;100.00
51928;BME280;37953;52.806;18.270;2023-01-25T00:18:09;102847.25;;;1.55;100.00
51928;BME280;37953;52.806;18.270;2023-01-25T00:20:34;102839.56;;;1.55;100.00
51928;BME280;37953;52.806;18.270;2023-01-25T00:23:04;102846.22;;;1.53;100.00
51928;BME280;37953;52.806;18.270;2023-01-25T00:25:29;102849.56;;;1.52;100.00
51928;BME280;37953;52.806;18.270;2023-01-25T00:27:55;102853.66;;;1.50;100.00
51928;BME280;37953;52.806;18.270;2023-01-25T00:30:21;102852.78;;;1.49;100.00
51928;BME280;37953;52.806;18.270;2023-01-25T00:32:51;102852.00;;;1.50;100.00
51928;BME280;37953;52.806;18.270;2023-01-25T00:35:30;102839.09;;;1.49;100.00
51928;BME280;37953;52.806;18.270;2023-01-25T00:37:57;102835.59;;;1.48;100.00
51928;BME280;37953;52.806;18.270;2023-01-25T00:40:25;102836.41;;;1.47;100.00
51928;BME280;37953;52.806;18.270;2023-01-25T00:42:51;102844.06;;;1.47;100.00
51928;BME280;37953;52.806;18.270;2023-01-25T00:45:16;102839.75;;;1.46;100.00
51928;BME280;37953;52.806;18.270;2023-01-25T00:47:43;102840.63;;;1.47;100.00
51928;BME280;37953;52.806;18.270;2023-01-25T00:50:09;102832.16;;;1.48;100.00
51928;BME280;37953;52.806;18.270;2023-01-25T00:52:35;102830.47;;;1.48;100.00
51928;BME280;37953;52.806;18.270;2023-01-25T00:55:01;102832.16;;;1.48;100.00
51928;BME280;37953;52.806;18.270;2023-01-25T00:57:26;102830.47;;;1.48;100.00
51928;BME280;37953;52.806;18.270;2023-01-25T00:59:52;102822.78;;;1.48;100.00
51928;BME280;37953;52.806;18.270;2023-01-25T01:02:18;102823.59;;;1.47;100.00
51928;BME280;37953;52.806;18.270;2023-01-25T01:04:45;102822.69;;;1.47;100.00
51928;BME280;37953;52.806;18.270;2023-01-25T01:07:11;102812.47;;;1.47;100.00
51928;BME280;37953;52.806;18.270;2023-01-25T01:09:37;102811.56;;;1.46;100.00
51928;BME280;37953;52.806;18.270;2023-01-25T01:12:03;102808.22;;;1.47;100.00
51928;BME280;37953;52.806;18.270;2023-01-25T01:14:29;102801.41;;;1.48;100.00
51928;BME280;37953;52.806;18.270;2023-01-25T01:16:55;102800.53;;;1.47;100.00
51928;BME280;37953;52.806;18.270;2023-01-25T01:19:21;102803.97;;;1.48;100.00
51928;BME280;37953;52.806;18.270;2023-01-25T01:21:46;102798.09;;;1.49;100.00
51928;BME280;37953;52.806;18.270;2023-01-25T01:24:12;102786.19;;;1.49;100.00
51928;BME280;37953;52.806;18.270;2023-01-25T01:26:38;102788.63;;;1.48;100.00
51928;BME280;37953;52.806;18.270;2023-01-25T01:29:04;102786.19;;;1.49;100.00
51928;BME280;37953;52.806;18.270;2023-01-25T01:31:30;102780.94;;;1.48;100.00
51928;BME280;37953;52.806;18.270;2023-01-25T01:33:56;102780.03;;;1.47;100.00
51928;BME280;37953;52.806;18.270;2023-01-25T01:36:24;102774.91;;;1.47;100.00
51928;BME280;37953;52.806;18.270;2023-01-25T01:38:50;102768.91;;;1.47;100.00
51928;BME280;37953;52.806;18.270;2023-01-25T01:41:16;102762.00;;;1.46;100.00
51928;BME280;37953;52.806;18.270;2023-01-25T01:43:42;102760.22;;;1.45;100.00
51928;BME280;37953;52.806;18.270;2023-01-25T01:46:21;102758.53;;;1.45;100.00
51928;BME280;37953;52.806;18.270;2023-01-25T01:54:19;102756.66;;;1.42;100.00
51928;BME280;37953;52.806;18.270;2023-01-25T01:59:11;102756.78;;;1.44;100.00
51928;BME280;37953;52.806;18.270;2023-01-25T02:01:37;102751.53;;;1.42;100.00
51928;BME280;37953;52.806;18.270;2023-01-25T02:04:04;102756.66;;;1.42;100.00
51928;BME280;37953;52.806;18.270;2023-01-25T02:06:33;102751.41;;;1.41;100.00
51928;BME280;37953;52.806;18.270;2023-01-25T02:09:00;102747.94;;;1.40;100.00
51928;BME280;37953;52.806;18.270;2023-01-25T02:11:27;102750.38;;;1.39;100.00
51928;BME280;37953;52.806;18.270;2023-01-25T02:13:53;102749.63;;;1.40;100.00
51928;BME280;37953;52.806;18.270;2023-01-25T02:16:21;102748.84;;;1.41;100.00
51928;BME280;37953;52.806;18.270;2023-01-25T02:18:48;102746.16;;;1.39;100.00
51928;BME280;37953;52.806;18.270;2023-01-25T02:21:14;102748.72;;;1.39;100.00
51928;BME280;37953;52.806;18.270;2023-01-25T02:26:18;102738.47;;;1.39;100.00
51928;BME280;37953;52.806;18.270;2023-01-25T02:31:28;102736.03;;;1.41;100.00
51928;BME280;37953;52.806;18.270;2023-01-25T02:33:54;102733.47;;;1.41;100.00
51928;BME280;37953;52.806;18.270;2023-01-25T02:36:24;102736.03;;;1.41;100.00
51928;BME280;37953;52.806;18.270;2023-01-25T02:39:13;102736.03;;;1.41;100.00
51928;BME280;37953;52.806;18.270;2023-01-25T02:41:43;102731.78;;;1.41;100.00
51928;BME280;37953;52.806;18.270;2023-01-25T02:44:15;102723.34;;;1.42;100.00
51928;BME280;37953;52.806;18.270;2023-01-25T02:46:42;102716.56;;;1.43;100.00
51928;BME280;37953;52.806;18.270;2023-01-25T02:49:12;102706.97;;;1.40;100.00
51928;BME280;37953;52.806;18.270;2023-01-25T02:51:40;102711.22;;;1.40;100.00
51928;BME280;37953;52.806;18.270;2023-01-25T02:54:07;102704.41;;;1.40;100.00
51928;BME280;37953;52.806;18.270;2023-01-25T02:56:33;102706.09;;;1.40;100.00
51928;BME280;37953;52.806;18.270;2023-01-25T02:58:59;102699.16;;;1.39;100.00
51928;BME280;37953;52.806;18.270;2023-01-25T03:01:33;102694.72;;;1.36;100.00
51928;BME280;37953;52.806;18.270;2023-01-25T03:03:59;102686.78;;;1.33;100.00
51928;BME280;37953;52.806;18.270;2023-01-25T03:06:25;102696.94;;;1.32;100.00
51928;BME280;37953;52.806;18.270;2023-01-25T03:08:50;102690.13;;;1.32;100.00
51928;BME280;37953;52.806;18.270;2023-01-25T03:11:16;102688.47;;;1.33;100.00
51928;BME280;37953;52.806;18.270;2023-01-25T03:13:42;102680.78;;;1.33;100.00
51928;BME280;37953;52.806;18.270;2023-01-25T03:16:09;102675.66;;;1.33;100.00
51928;BME280;37953;52.806;18.270;2023-01-25T03:18:35;102670.66;;;1.34;100.00
51928;BME280;37953;52.806;18.270;2023-01-25T03:21:08;102665.66;;;1.36;100.00
51928;BME280;37953;52.806;18.270;2023-01-25T03:23:34;102671.66;;;1.36;100.00
51928;BME280;37953;52.806;18.270;2023-01-25T03:28:44;102676.78;;;1.36;100.00
51928;BME280;37953;52.806;18.270;2023-01-25T03:31:12;102672.53;;;1.37;100.00
51928;BME280;37953;52.806;18.270;2023-01-25T03:33:38;102675.13;;;1.37;100.00
51928;BME280;37953;52.806;18.270;2023-01-25T03:36:04;102677.66;;;1.37;100.00
51928;BME280;37953;52.806;18.270;2023-01-25T03:38:30;102674.34;;;1.38;100.00
51928;BME280;37953;52.806;18.270;2023-01-25T03:40:56;102669.22;;;1.38;100.00
51928;BME280;37953;52.806;18.270;2023-01-25T03:43:22;102668.22;;;1.36;100.00
51928;BME280;37953;52.806;18.270;2023-01-25T03:46:01;102653.75;;;1.36;100.00
51928;BME280;37953;52.806;18.270;2023-01-25T03:48:27;102654.63;;;1.37;100.00
51928;BME280;37953;52.806;18.270;2023-01-25T03:50:54;102645.19;;;1.36;100.00
51928;BME280;37953;52.806;18.270;2023-01-25T03:53:20;102646.81;;;1.35;100.00
51928;BME280;37953;52.806;18.270;2023-01-25T03:55:56;102642.63;;;1.36;100.00
51928;BME280;37953;52.806;18.270;2023-01-25T03:58:22;102639.13;;;1.35;100.00
51928;BME280;37953;52.806;18.270;2023-01-25T04:00:48;102636.69;;;1.37;100.00
51928;BME280;37953;52.806;18.270;2023-01-25T04:03:13;102633.25;;;1.36;100.00
51928;BME280;37953;52.806;18.270;2023-01-25T04:05:41;102627.25;;;1.36;100.00
51928;BME280;37953;52.806;18.270;2023-01-25T04:08:06;102618.78;;;1.37;100.00
51928;BME280;37953;52.806;18.270;2023-01-25T04:10:32;102617.09;;;1.37;100.00
51928;BME280;37953;52.806;18.270;2023-01-25T04:12:58;102611.09;;;1.37;100.00
51928;BME280;37953;52.806;18.270;2023-01-25T04:15:24;102603.41;;;1.37;100.00
51928;BME280;37953;52.806;18.270;2023-01-25T04:17:49;102597.28;;;1.35;100.00
51928;BME280;37953;52.806;18.270;2023-01-25T04:20:15;102592.94;;;1.34;100.00
51928;BME280;37953;52.806;18.270;2023-01-25T04:22:41;102588.59;;;1.33;100.00
51928;BME280;37953;52.806;18.270;2023-01-25T04:25:07;102587.72;;;1.32;100.00
51928;BME280;37953;52.806;18.270;2023-01-25T04:27:33;102594.50;;;1.32;100.00
51928;BME280;37953;52.806;18.270;2023-01-25T04:29:58;102597.81;;;1.31;100.00
51928;BME280;37953;52.806;18.270;2023-01-25T04:32:24;102594.38;;;1.30;100.00
51928;BME280;37953;52.806;18.270;2023-01-25T04:34:50;102598.75;;;1.31;100.00
51928;BME280;37953;52.806;18.270;2023-01-25T04:37:15;102600.38;;;1.31;100.00
51928;BME280;37953;52.806;18.270;2023-01-25T04:39:47;102598.63;;;1.30;100.00
51928;BME280;37953;52.806;18.270;2023-01-25T04:42:13;102590.94;;;1.30;100.00
51928;BME280;37953;52.806;18.270;2023-01-25T04:44:39;102598.63;;;1.30;100.00
51928;BME280;37953;52.806;18.270;2023-01-25T04:47:08;102594.38;;;1.30;100.00
51928;BME280;37953;52.806;18.270;2023-01-25T04:49:34;102590.94;;;1.30;100.00
51928;BME280;37953;52.806;18.270;2023-01-25T04:52:00;102596.94;;;1.30;100.00
51928;BME280;37953;52.806;18.270;2023-01-25T04:54:25;102591.81;;;1.30;100.00
51928;BME280;37953;52.806;18.270;2023-01-25T04:56:51;102595.25;;;1.31;100.00
51928;BME280;37953;52.806;18.270;2023-01-25T04:59:17;102602.06;;;1.30;100.00
51928;BME280;37953;52.806;18.270;2023-01-25T05:01:42;102604.63;;;1.30;100.00
51928;BME280;37953;52.806;18.270;2023-01-25T05:04:08;102593.50;;;1.30;100.00
51928;BME280;37953;52.806;18.270;2023-01-25T05:06:34;102597.72;;;1.29;100.00
51928;BME280;37953;52.806;18.270;2023-01-25T05:09:00;102595.06;;;1.28;100.00
51928;BME280;37953;52.806;18.270;2023-01-25T05:11:25;102591.69;;;1.29;100.00
51928;BME280;37953;52.806;18.270;2023-01-25T05:13:51;102591.69;;;1.29;100.00
51928;BME280;37953;52.806;18.270;2023-01-25T05:16:19;102593.50;;;1.30;100.00
51928;BME280;37953;52.806;18.270;2023-01-25T05:18:45;102593.50;;;1.30;100.00
51928;BME280;37953;52.806;18.270;2023-01-25T05:21:10;102591.69;;;1.29;100.00
51928;BME280;37953;52.806;18.270;2023-01-25T05:23:56;102590.06;;;1.29;100.00
51928;BME280;37953;52.806;18.270;2023-01-25T05:26:22;102599.38;;;1.29;100.00
51928;BME280;37953;52.806;18.270;2023-01-25T05:29:06;102597.59;;;1.28;100.00
51928;BME280;37953;52.806;18.270;2023-01-25T05:31:32;102594.94;;;1.26;100.00
51928;BME280;37953;52.806;18.270;2023-01-25T05:33:57;102592.38;;;1.26;100.00
51928;BME280;37953;52.806;18.270;2023-01-25T05:36:23;102588.91;;;1.26;100.00
51928;BME280;37953;52.806;18.270;2023-01-25T05:38:49;102584.69;;;1.26;100.00
51928;BME280;37953;52.806;18.270;2023-01-25T05:41:15;102588.91;;;1.26;100.00
51928;BME280;37953;52.806;18.270;2023-01-25T05:43:40;102588.91;;;1.26;100.00
51928;BME280;37953;52.806;18.270;2023-01-25T05:46:06;102582.25;;;1.28;100.00
51928;BME280;37953;52.806;18.270;2023-01-25T05:48:32;102583.13;;;1.28;100.00
51928;BME280;37953;52.806;18.270;2023-01-25T05:50:58;102584.13;;;1.30;100.00
51928;BME280;37953;52.806;18.270;2023-01-25T05:53:24;102586.69;;;1.30;100.00
51928;BME280;37953;52.806;18.270;2023-01-25T05:55:50;102581.69;;;1.32;100.00
51928;BME280;37953;52.806;18.270;2023-01-25T05:58:16;102580.03;;;1.32;100.00
51928;BME280;37953;52.806;18.270;2023-01-25T06:00:42;102579.22;;;1.33;100.00
51928;BME280;37953;52.806;18.270;2023-01-25T06:03:07;102578.59;;;1.36;100.00
51928;BME280;37953;52.806;18.270;2023-01-25T06:05:35;102578.81;;;1.39;100.00
51928;BME280;37953;52.806;18.270;2023-01-25T06:08:01;102576.50;;;1.42;100.00
51928;BME280;37953;52.806;18.270;2023-01-25T06:10:27;102577.50;;;1.44;100.00
51928;BME280;37953;52.806;18.270;2023-01-25T06:12:56;102569.91;;;1.46;100.00
51928;BME280;37953;52.806;18.270;2023-01-25T06:15:22;102572.59;;;1.47;100.00
51928;BME280;37953;52.806;18.270;2023-01-25T06:17:48;102571.78;;;1.48;100.00
51928;BME280;37953;52.806;18.270;2023-01-25T06:20:14;102570.91;;;1.48;100.00
51928;BME280;37953;52.806;18.270;2023-01-25T06:22:40;102563.22;;;1.48;100.00
51928;BME280;37953;52.806;18.270;2023-01-25T06:25:06;102560.78;;;1.49;100.00
51928;BME280;37953;52.806;18.270;2023-01-25T06:27:32;102565.91;;;1.49;100.00
51928;BME280;37953;52.806;18.270;2023-01-25T06:29:57;102568.47;;;1.49;100.00
51928;BME280;37953;52.806;18.270;2023-01-25T06:32:23;102572.03;;;1.51;100.00
51928;BME280;37953;52.806;18.270;2023-01-25T06:34:50;102572.91;;;1.52;100.00
51928;BME280;37953;52.806;18.270;2023-01-25T06:37:16;102569.59;;;1.53;100.00
51928;BME280;37953;52.806;18.270;2023-01-25T06:39:41;102569.59;;;1.53;100.00
51928;BME280;37953;52.806;18.270;2023-01-25T06:42:07;102567.91;;;1.53;100.00
51928;BME280;37953;52.806;18.270;2023-01-25T06:44:33;102558.56;;;1.54;100.00
51928;BME280;37953;52.806;18.270;2023-01-25T06:46:59;102561.09;;;1.54;100.00
51928;BME280;37953;52.806;18.270;2023-01-25T06:51:50;102548.84;;;1.50;100.00
51928;BME280;37953;52.806;18.270;2023-01-25T06:54:16;102565.09;;;1.50;100.00
51928;BME280;37953;52.806;18.270;2023-01-25T06:56:41;102566.78;;;1.50;100.00
51928;BME280;37953;52.806;18.270;2023-01-25T06:59:07;102558.97;;;1.48;100.00
51928;BME280;37953;52.806;18.270;2023-01-25T07:01:33;102555.53;;;1.48;100.00
51928;BME280;37953;52.806;18.270;2023-01-25T07:03:59;102548.66;;;1.47;100.00
51928;BME280;37953;52.806;18.270;2023-01-25T07:06:25;102542.63;;;1.46;100.00
51928;BME280;37953;52.806;18.270;2023-01-25T07:09:00;102540.09;;;1.46;100.00
51928;BME280;37953;52.806;18.270;2023-01-25T07:11:25;102532.41;;;1.46;100.00
51928;BME280;37953;52.806;18.270;2023-01-25T07:13:51;102530.72;;;1.47;100.00
51928;BME280;37953;52.806;18.270;2023-01-25T07:16:18;102535.03;;;1.48;100.00
51928;BME280;37953;52.806;18.270;2023-01-25T07:18:44;102531.59;;;1.47;100.00
51928;BME280;37953;52.806;18.270;2023-01-25T07:21:11;102523.13;;;1.48;100.00
51928;BME280;37953;52.806;18.270;2023-01-25T07:23:37;102522.25;;;1.48;100.00
51928;BME280;37953;52.806;18.270;2023-01-25T07:26:04;102512.00;;;1.48;100.00
51928;BME280;37953;52.806;18.270;2023-01-25T07:28:30;102511.13;;;1.47;100.00
51928;BME280;37953;52.806;18.270;2023-01-25T07:31:03;102511.13;;;1.47;100.00
51928;BME280;37953;52.806;18.270;2023-01-25T07:33:29;102504.31;;;1.48;100.00
51928;BME280;37953;52.806;18.270;2023-01-25T07:35:58;102500.88;;;1.47;100.00
51928;BME280;37953;52.806;18.270;2023-01-25T07:38:24;102498.31;;;1.47;100.00
51928;BME280;37953;52.806;18.270;2023-01-25T07:40:51;102498.31;;;1.47;100.00
51928;BME280;37953;52.806;18.270;2023-01-25T07:43:17;102485.38;;;1.46;100.00
51928;BME280;37953;52.806;18.270;2023-01-25T07:45:49;102483.75;;;1.46;100.00
51928;BME280;37953;52.806;18.270;2023-01-25T07:48:16;102486.28;;;1.46;100.00
51928;BME280;37953;52.806;18.270;2023-01-25T07:50:42;102480.38;;;1.47;100.00
51928;BME280;37953;52.806;18.270;2023-01-25T07:53:11;102485.38;;;1.46;100.00
51928;BME280;37953;52.806;18.270;2023-01-25T07:55:37;102483.75;;;1.46;100.00
51928;BME280;37953;52.806;18.270;2023-01-25T07:58:10;102486.28;;;1.46;100.00
51928;BME280;37953;52.806;18.270;2023-01-25T08:00:36;102488.06;;;1.47;100.00
51928;BME280;37953;52.806;18.270;2023-01-25T08:03:02;102490.63;;;1.47;100.00
51928;BME280;37953;52.806;18.270;2023-01-25T08:05:27;102489.81;;;1.48;100.00
51928;BME280;37953;52.806;18.270;2023-01-25T08:07:53;102482.94;;;1.47;100.00
51928;BME280;37953;52.806;18.270;2023-01-25T08:10:19;102484.63;;;1.47;100.00
51928;BME280;37953;52.806;18.270;2023-01-25T08:12:45;102484.63;;;1.47;100.00
51928;BME280;37953;52.806;18.270;2023-01-25T08:15:11;102478.69;;;1.48;100.00
51928;BME280;37953;52.806;18.270;2023-01-25T08:17:38;102473.56;;;1.48;100.00
51928;BME280;37953;52.806;18.270;2023-01-25T08:20:04;102469.34;;;1.48;100.00
51928;BME280;37953;52.806;18.270;2023-01-25T08:22:30;102470.25;;;1.49;100.00
51928;BME280;37953;52.806;18.270;2023-01-25T08:24:56;102467.56;;;1.47;100.00
51928;BME280;37953;52.806;18.270;2023-01-25T08:27:22;102469.34;;;1.48;100.00
51928;BME280;37953;52.806;18.270;2023-01-25T08:29:48;102469.25;;;1.47;100.00
51928;BME280;37953;52.806;18.270;2023-01-25T08:32:22;102470.13;;;1.47;100.00
51928;BME280;37953;52.806;18.270;2023-01-25T08:34:54;102466.69;;;1.47;100.00
51928;BME280;37953;52.806;18.270;2023-01-25T08:37:20;102468.38;;;1.46;100.00
51928;BME280;37953;52.806;18.270;2023-01-25T08:39:47;102461.44;;;1.45;100.00
51928;BME280;37953;52.806;18.270;2023-01-25T08:42:13;102466.56;;;1.45;100.00
51928;BME280;37953;52.806;18.270;2023-01-25T08:44:39;102470.00;;;1.46;100.00
51928;BME280;37953;52.806;18.270;2023-01-25T08:47:05;102472.50;;;1.44;100.00
51928;BME280;37953;52.806;18.270;2023-01-25T08:49:31;102463.00;;;1.43;100.00
51928;BME280;37953;52.806;18.270;2023-01-25T08:51:58;102468.13;;;1.43;100.00
51928;BME280;37953;52.806;18.270;2023-01-25T08:54:24;102462.13;;;1.42;100.00
51928;BME280;37953;52.806;18.270;2023-01-25T08:56:50;102455.22;;;1.41;100.00
51928;BME280;37953;52.806;18.270;2023-01-25T08:59:16;102458.56;;;1.40;100.00
51928;BME280;37953;52.806;18.270;2023-01-25T09:01:42;102454.19;;;1.39;100.00
51928;BME280;37953;52.806;18.270;2023-01-25T09:04:08;102450.00;;;1.40;100.00
51928;BME280;37953;52.806;18.270;2023-01-25T09:06:34;102451.56;;;1.38;100.00
51928;BME280;37953;52.806;18.270;2023-01-25T09:09:00;102446.53;;;1.39;100.00
51928;BME280;37953;52.806;18.270;2023-01-25T09:11:25;102446.44;;;1.38;100.00
51928;BME280;37953;52.806;18.270;2023-01-25T09:13:51;102446.44;;;1.38;100.00
51928;BME280;37953;52.806;18.270;2023-01-25T09:16:21;102442.97;;;1.37;100.00
51928;BME280;37953;52.806;18.270;2023-01-25T09:19:08;102449.75;;;1.37;100.00
51928;BME280;37953;52.806;18.270;2023-01-25T09:21:34;102454.00;;;1.36;100.00
51928;BME280;37953;52.806;18.270;2023-01-25T09:24:01;102447.88;;;1.34;100.00
51928;BME280;37953;52.806;18.270;2023-01-25T09:26:27;102446.19;;;1.35;100.00
51928;BME280;37953;52.806;18.270;2023-01-25T09:28:53;102447.88;;;1.34;100.00
51928;BME280;37953;52.806;18.270;2023-01-25T09:31:19;102448.63;;;1.33;100.00
51928;BME280;37953;52.806;18.270;2023-01-25T09:33:46;102461.56;;;1.35;100.00
51928;BME280;37953;52.806;18.270;2023-01-25T09:36:12;102451.31;;;1.35;100.00
51928;BME280;37953;52.806;18.270;2023-01-25T09:38:38;102452.19;;;1.35;100.00
51928;BME280;37953;52.806;18.270;2023-01-25T09:44:07;102441.19;;;1.36;100.00
51928;BME280;37953;52.806;18.270;2023-01-25T09:46:29;102426.72;;;1.37;100.00
51928;BME280;37953;52.806;18.270;2023-01-25T09:49:06;102419.03;;;1.37;100.00
51928;BME280;37953;52.806;18.270;2023-01-25T09:52:44;102425.94;;;1.38;100.00
51928;BME280;37953;52.806;18.270;2023-01-25T09:54:41;102422.59;;;1.39;100.00
51928;BME280;37953;52.806;18.270;2023-01-25T09:57:14;102416.59;;;1.38;100.00
51928;BME280;37953;52.806;18.270;2023-01-25T09:59:45;102412.22;;;1.37;100.00
51928;BME280;37953;52.806;18.270;2023-01-25T10:02:23;102407.91;;;1.36;100.00
51928;BME280;37953;52.806;18.270;2023-01-25T10:04:52;102407.13;;;1.37;100.00
51928;BME280;37953;52.806;18.270;2023-01-25T10:07:22;102399.53;;;1.39;100.00
51928;BME280;37953;52.806;18.270;2023-01-25T10:12:34;102400.53;;;1.41;100.00
51928;BME280;37953;52.806;18.270;2023-01-25T10:15:39;102396.31;;;1.41;100.00
51928;BME280;37953;52.806;18.270;2023-01-25T10:18:02;102395.44;;;1.41;100.00
51928;BME280;37953;52.806;18.270;2023-01-25T10:20:38;102387.75;;;1.41;100.00
51928;BME280;37953;52.806;18.270;2023-01-25T10:26:17;102390.31;;;1.41;100.00
51928;BME280;37953;52.806;18.270;2023-01-25T10:28:48;102383.41;;;1.40;100.00
51928;BME280;37953;52.806;18.270;2023-01-25T10:31:18;102379.06;;;1.39;100.00
51928;BME280;37953;52.806;18.270;2023-01-25T10:33:50;102368.06;;;1.40;100.00
51928;BME280;37953;52.806;18.270;2023-01-25T10:36:22;102363.69;;;1.39;100.00
51928;BME280;37953;52.806;18.270;2023-01-25T10:38:53;102368.06;;;1.40;100.00
51928;BME280;37953;52.806;18.270;2023-01-25T10:41:24;102365.38;;;1.38;100.00
51928;BME280;37953;52.806;18.270;2023-01-25T10:43:53;102358.47;;;1.37;100.00
51928;BME280;37953;52.806;18.270;2023-01-25T10:46:38;102362.69;;;1.37;100.00
51928;BME280;37953;52.806;18.270;2023-01-25T10:49:24;102352.44;;;1.37;100.00
51928;BME280;37953;52.806;18.270;2023-01-25T10:51:51;102345.66;;;1.37;100.00
51928;BME280;37953;52.806;18.270;2023-01-25T10:54:17;102339.66;;;1.37;100.00
51928;BME280;37953;52.806;18.270;2023-01-25T10:56:43;102346.56;;;1.38;100.00
51928;BME280;37953;52.806;18.270;2023-01-25T11:01:38;102332.09;;;1.38;100.00
51928;BME280;37953;52.806;18.270;2023-01-25T11:04:20;102330.41;;;1.39;100.00
51928;BME280;37953;52.806;18.270;2023-01-25T11:06:51;102319.28;;;1.38;100.00
51928;BME280;37953;52.806;18.270;2023-01-25T11:11:58;102317.59;;;1.39;100.00
51928;BME280;37953;52.806;18.270;2023-01-25T11:14:34;102309.03;;;1.38;100.00
51928;BME280;37953;52.806;18.270;2023-01-25T11:17:00;102303.91;;;1.38;100.00
51928;BME280;37953;52.806;18.270;2023-01-25T11:19:36;102303.03;;;1.38;100.00
51928;BME280;37953;52.806;18.270;2023-01-25T11:22:03;102297.91;;;1.38;100.00
51928;BME280;37953;52.806;18.270;2023-01-25T11:24:34;102288.56;;;1.38;100.00
51928;BME280;37953;52.806;18.270;2023-01-25T11:27:16;102284.31;;;1.39;100.00
51928;BME280;37953;52.806;18.270;2023-01-25T11:29:43;102282.63;;;1.39;100.00
51928;BME280;37953;52.806;18.270;2023-01-25T11:32:16;102279.19;;;1.39;100.00
51928;BME280;37953;52.806;18.270;2023-01-25T11:34:46;102270.75;;;1.40;100.00
51928;BME280;37953;52.806;18.270;2023-01-25T12:09:02;102225.31;;;1.37;100.00
51928;BME280;37953;52.806;18.270;2023-01-25T12:13:43;102219.31;;;1.37;100.00
51928;BME280;37953;52.806;18.270;2023-01-25T12:19:08;102209.94;;;1.37;100.00
51928;BME280;37953;52.806;18.270;2023-01-25T12:31:56;102191.25;;;1.38;100.00
51928;BME280;37953;52.806;18.270;2023-01-25T12:34:34;102182.75;;;1.39;100.00
51928;BME280;37953;52.806;18.270;2023-01-25T12:37:06;102172.53;;;1.39;100.00
51928;BME280;37953;52.806;18.270;2023-01-25T12:39:36;102177.66;;;1.39;100.00
51928;BME280;37953;52.806;18.270;2023-01-25T12:44:51;102169.31;;;1.42;100.00
51928;BME280;37953;52.806;18.270;2023-01-25T12:52:29;102162.28;;;1.39;100.00
51928;BME280;37953;52.806;18.270;2023-01-25T12:54:58;102152.03;;;1.39;100.00
51928;BME280;37953;52.806;18.270;2023-01-25T13:08:01;102144.47;;;1.41;100.00
51928;BME280;37953;52.806;18.270;2023-01-25T13:10:25;102144.47;;;1.41;100.00
51928;BME280;37953;52.806;18.270;2023-01-25T13:13:00;102139.22;;;1.39;100.00
51928;BME280;37953;52.806;18.270;2023-01-25T13:18:17;102138.34;;;1.39;100.00
51928;BME280;37953;52.806;18.270;2023-01-25T13:20:47;102131.47;;;1.38;100.00
51928;BME280;37953;52.806;18.270;2023-01-25T13:25:52;102110.88;;;1.36;100.00
51928;BME280;37953;52.806;18.270;2023-01-25T13:31:03;102116.88;;;1.37;100.00
51928;BME280;37953;52.806;18.270;2023-01-25T13:33:32;102111.88;;;1.38;100.00
51928;BME280;37953;52.806;18.270;2023-01-25T13:38:44;102090.50;;;1.38;100.00
51928;BME280;37953;52.806;18.270;2023-01-25T13:41:12;102091.50;;;1.40;100.00
51928;BME280;37953;52.806;18.270;2023-01-25T13:43:45;102085.47;;;1.39;100.00
51928;BME280;37953;52.806;18.270;2023-01-25T13:46:20;102078.69;;;1.40;100.00
51928;BME280;37953;52.806;18.270;2023-01-25T13:48:51;102080.34;;;1.39;100.00
51928;BME280;37953;52.806;18.270;2023-01-25T13:51:18;102079.56;;;1.40;100.00
51928;BME280;37953;52.806;18.270;2023-01-25T13:53:55;102077.88;;;1.41;100.00
51928;BME280;37953;52.806;18.270;2023-01-25T13:56:33;102073.66;;;1.41;100.00
51928;BME280;37953;52.806;18.270;2023-01-25T13:58:59;102069.44;;;1.42;100.00
51928;BME280;37953;52.806;18.270;2023-01-25T14:01:25;102063.41;;;1.41;100.00
51928;BME280;37953;52.806;18.270;2023-01-25T14:03:56;102066.06;;;1.43;100.00
51928;BME280;37953;52.806;18.270;2023-01-25T14:06:25;102068.75;;;1.45;100.00
51928;BME280;37953;52.806;18.270;2023-01-25T14:08:57;102060.94;;;1.43;100.00
51928;BME280;37953;52.806;18.270;2023-01-25T14:11:32;102056.81;;;1.45;100.00
51928;BME280;37953;52.806;18.270;2023-01-25T14:14:13;102050.94;;;1.46;100.00
51928;BME280;37953;52.806;18.270;2023-01-25T14:16:59;102052.56;;;1.46;100.00
51928;BME280;37953;52.806;18.270;2023-01-25T14:19:25;102048.38;;;1.46;100.00
51928;BME280;37953;52.806;18.270;2023-01-25T14:24:38;102039.88;;;1.47;100.00
51928;BME280;37953;52.806;18.270;2023-01-25T14:27:04;102034.75;;;1.47;100.00
51928;BME280;37953;52.806;18.270;2023-01-25T14:29:33;102019.41;;;1.47;100.00
51928;BME280;37953;52.806;18.270;2023-01-25T14:32:02;102022.75;;;1.46;100.00
51928;BME280;37953;52.806;18.270;2023-01-25T14:34:28;102012.50;;;1.46;100.00
51928;BME280;37953;52.806;18.270;2023-01-25T14:39:38;102004.72;;;1.45;100.00